El Rito, Colorado
Current Conditions -  °F | °C
As of 6:11 PM on Saturday 22 Nov 2014 (Local Time) from KVTP Reporting Station
Clear Clear  
Wind Chill: 17°   Ceiling: Unl
Heat Index: 30°   Visibility: 10mi
Dew Point: 10°   Wind: 23mph
Humidity: 44%   Direction: 190°S
Pressure: 29.79"   Gusts: 39mph
Location:  37.1568°N, 105.289°W
Report Text: KVTP 230111Z AUTO 19020G34KT 10SM CLR M01/M12 A2979 RMK AO2
Loading
Personal Weather Stations






























Interactive Weather Map New forecast layout! Learn more

10-Day Weather Forecast

Advertisements
Track Severe Weather on mobile